createdAt,value
2022-10-04T00:02:50.687Z,8.14
2022-10-04T00:06:01.010Z,8.11
2022-10-04T00:09:10.475Z,8.07
2022-10-04T00:12:22.174Z,8.00
2022-10-04T00:15:31.405Z,7.99
2022-10-04T00:18:43.365Z,7.97
2022-10-04T00:22:20.876Z,7.96
2022-10-04T00:25:38.209Z,7.96
2022-10-04T00:28:48.334Z,7.96
2022-10-04T00:32:28.727Z,7.92
2022-10-04T00:35:52.695Z,7.90
2022-10-04T00:39:17.244Z,7.94
2022-10-04T00:42:41.023Z,7.92
2022-10-04T00:45:49.141Z,7.89
2022-10-04T00:48:57.455Z,7.85
2022-10-04T00:52:06.283Z,7.81
2022-10-04T00:55:23.436Z,7.80
2022-10-04T00:58:33.465Z,7.80
2022-10-04T01:01:39.819Z,7.75
2022-10-04T01:04:51.000Z,7.72
2022-10-04T01:07:59.732Z,7.75
2022-10-04T01:11:12.103Z,7.66
2022-10-04T01:14:23.050Z,7.68
2022-10-04T01:17:28.150Z,7.71
2022-10-04T01:20:35.490Z,7.70
2022-10-04T01:23:44.676Z,7.68
2022-10-04T01:26:49.542Z,7.67
2022-10-04T01:29:56.611Z,7.68
2022-10-04T01:33:02.455Z,7.66
2022-10-04T01:36:09.799Z,7.67
2022-10-04T01:39:17.325Z,7.66
2022-10-04T01:42:28.575Z,7.58
2022-10-04T01:45:39.027Z,7.56
2022-10-04T01:48:47.607Z,7.51
2022-10-04T01:51:58.565Z,7.51
2022-10-04T01:55:08.507Z,7.52
2022-10-04T01:58:17.347Z,7.50
2022-10-04T02:01:28.950Z,7.49
2022-10-04T02:04:38.746Z,7.52
2022-10-04T02:07:44.676Z,7.50
2022-10-04T02:10:52.266Z,7.47
2022-10-04T02:13:58.250Z,7.47
2022-10-04T02:17:05.593Z,7.49
2022-10-04T02:20:16.634Z,7.48
2022-10-04T02:23:23.334Z,7.50
2022-10-04T02:26:29.962Z,7.46
2022-10-04T02:29:35.266Z,7.49
2022-10-04T02:33:00.832Z,7.47
2022-10-04T02:36:06.250Z,7.43
2022-10-04T02:39:16.081Z,7.47
2022-10-04T02:42:32.261Z,7.47
2022-10-04T02:45:45.363Z,7.53
2022-10-04T02:48:55.660Z,7.62
2022-10-04T02:52:05.659Z,7.46
2022-10-04T02:55:20.440Z,7.33
2022-10-04T02:58:28.579Z,7.26
2022-10-04T03:01:45.684Z,7.27
2022-10-04T03:04:53.293Z,7.30
2022-10-04T03:07:59.334Z,7.32
2022-10-04T03:11:09.949Z,7.26
2022-10-04T03:14:20.699Z,7.31
2022-10-04T03:17:25.901Z,7.25
2022-10-04T03:20:31.078Z,7.25
2022-10-04T03:23:37.172Z,7.28
2022-10-04T03:26:47.417Z,7.24
2022-10-04T03:29:58.887Z,7.25
2022-10-04T03:33:04.578Z,7.20
2022-10-04T03:36:14.288Z,7.26
2022-10-04T03:39:33.352Z,7.26
2022-10-04T03:42:40.038Z,7.22
2022-10-04T03:45:46.682Z,7.27
2022-10-04T03:48:56.203Z,7.35
2022-10-04T03:52:03.237Z,7.36
2022-10-04T03:55:10.126Z,7.33
2022-10-04T03:58:16.556Z,7.29
2022-10-04T04:01:36.353Z,7.31
2022-10-04T04:04:51.034Z,7.32
2022-10-04T04:08:05.581Z,7.41
2022-10-04T04:11:20.740Z,7.45
2022-10-04T04:14:29.568Z,7.47
2022-10-04T04:17:45.033Z,7.50
2022-10-04T04:20:52.550Z,7.56
2022-10-04T04:24:01.220Z,7.57
2022-10-04T04:27:11.093Z,7.58
2022-10-04T04:30:21.365Z,7.61
2022-10-04T04:33:31.835Z,7.61
2022-10-04T04:36:43.143Z,7.53
2022-10-04T04:39:55.070Z,7.57
2022-10-04T04:43:03.181Z,7.57
2022-10-04T04:46:27.210Z,7.55
2022-10-04T04:49:34.106Z,7.59
2022-10-04T04:52:40.088Z,7.65
2022-10-04T04:56:05.008Z,7.70
2022-10-04T04:59:10.769Z,7.73
2022-10-04T05:02:31.213Z,7.74
2022-10-04T05:05:38.235Z,7.73
2022-10-04T05:08:51.299Z,7.67
2022-10-04T05:12:00.430Z,7.61
2022-10-04T05:15:05.466Z,7.58
2022-10-04T05:18:32.195Z,7.59
2022-10-04T05:21:42.846Z,7.55
2022-10-04T05:24:50.678Z,7.53
2022-10-04T05:27:57.560Z,7.50
2022-10-04T05:31:37.870Z,7.51
2022-10-04T05:34:45.969Z,7.55
2022-10-04T05:38:03.256Z,7.48
2022-10-04T05:41:16.504Z,7.59
2022-10-04T05:44:30.407Z,7.64
2022-10-04T05:47:35.911Z,7.62
2022-10-04T05:50:42.735Z,7.64
2022-10-04T05:53:50.433Z,7.68
2022-10-04T05:57:09.339Z,7.73
2022-10-04T06:00:18.547Z,7.78
2022-10-04T06:03:38.896Z,7.90
2022-10-04T06:06:50.754Z,7.91
2022-10-04T06:10:27.943Z,8.00
2022-10-04T06:14:07.973Z,8.13
2022-10-04T06:17:34.465Z,8.29
2022-10-04T06:21:12.243Z,8.43
2022-10-04T06:24:26.178Z,8.53
2022-10-04T06:27:38.478Z,8.61
2022-10-04T06:31:03.668Z,8.56
2022-10-04T06:34:36.805Z,8.60
2022-10-04T06:38:09.238Z,8.61
2022-10-04T06:42:00.037Z,8.66
2022-10-04T06:45:25.023Z,8.70
2022-10-04T06:48:50.904Z,8.81
2022-10-04T06:52:17.410Z,8.87
2022-10-04T06:55:43.114Z,8.99
2022-10-04T06:59:11.560Z,9.01
2022-10-04T07:02:24.591Z,9.08
2022-10-04T07:05:35.311Z,9.14
2022-10-04T07:08:45.572Z,9.17
2022-10-04T07:11:55.245Z,9.22
2022-10-04T07:15:04.738Z,9.29
2022-10-04T07:18:17.251Z,9.38
2022-10-04T07:21:28.443Z,9.46
2022-10-04T07:24:46.425Z,9.55
2022-10-04T07:28:10.592Z,9.60
2022-10-04T07:31:23.615Z,9.68
2022-10-04T07:34:31.227Z,9.76
2022-10-04T07:37:55.567Z,9.87
2022-10-04T07:41:12.994Z,9.89
2022-10-04T07:44:28.493Z,9.97
2022-10-04T07:47:34.653Z,10.14
2022-10-04T07:50:46.761Z,10.25
2022-10-04T07:53:58.237Z,10.30
2022-10-04T07:57:16.166Z,10.31
2022-10-04T08:00:24.640Z,10.30
2022-10-04T08:03:43.794Z,10.42
2022-10-04T08:07:12.655Z,10.53
2022-10-04T08:10:26.299Z,10.56
2022-10-04T08:13:41.964Z,10.63
2022-10-04T08:17:00.643Z,10.66
2022-10-04T08:20:22.524Z,10.67
2022-10-04T08:23:47.908Z,10.76
2022-10-04T08:27:12.886Z,10.82
2022-10-04T08:30:18.138Z,10.97
2022-10-04T08:33:34.234Z,11.02
2022-10-04T08:36:50.371Z,11.09
2022-10-04T08:40:13.035Z,11.24
2022-10-04T08:43:43.575Z,11.31
2022-10-04T08:47:29.005Z,11.56
2022-10-04T08:51:02.838Z,11.66
2022-10-04T08:54:28.220Z,11.69
2022-10-04T08:58:12.899Z,11.83
2022-10-04T09:01:48.650Z,12.05
2022-10-04T09:05:14.333Z,12.32
2022-10-04T09:08:51.687Z,12.64
2022-10-04T09:12:23.551Z,12.87
2022-10-04T09:15:41.454Z,13.09
2022-10-04T09:19:00.959Z,13.29
2022-10-04T09:22:34.946Z,13.61
2022-10-04T09:25:59.976Z,13.93
2022-10-04T09:29:19.551Z,14.22
2022-10-04T09:33:02.471Z,14.58
2022-10-04T09:36:29.934Z,14.87
2022-10-04T09:40:02.013Z,15.16
2022-10-04T09:43:30.470Z,15.37
2022-10-04T09:46:58.025Z,15.57
2022-10-04T09:50:37.958Z,15.72
2022-10-04T09:53:58.837Z,15.81
2022-10-04T09:57:16.262Z,15.89
2022-10-04T10:00:28.828Z,15.92
2022-10-04T10:03:55.664Z,15.93
2022-10-04T10:07:15.795Z,15.84
2022-10-04T10:10:45.331Z,15.82
2022-10-04T10:14:15.904Z,15.89
2022-10-04T10:17:29.747Z,15.97
2022-10-04T10:20:57.722Z,16.10
2022-10-04T10:24:25.837Z,16.20
2022-10-04T10:28:05.026Z,16.34
2022-10-04T10:31:32.871Z,16.36
2022-10-04T10:35:16.763Z,16.40
2022-10-04T10:38:35.970Z,16.44
2022-10-04T10:42:14.250Z,16.61
2022-10-04T10:45:38.414Z,16.65
2022-10-04T10:49:22.378Z,16.71
2022-10-04T10:53:13.144Z,16.72
2022-10-04T10:56:39.730Z,16.69
2022-10-04T11:00:08.670Z,16.64
2022-10-04T11:03:51.361Z,16.56
2022-10-04T11:07:27.064Z,16.49
2022-10-04T11:11:06.639Z,16.66
2022-10-04T11:14:47.883Z,16.76
2022-10-04T11:18:20.683Z,16.89
2022-10-04T11:21:56.157Z,16.91
2022-10-04T11:25:42.403Z,16.87
2022-10-04T11:28:52.624Z,16.91
2022-10-04T11:32:27.686Z,16.97
2022-10-04T11:35:44.645Z,17.04
2022-10-04T11:39:32.596Z,17.05
2022-10-04T11:43:01.169Z,17.07
2022-10-04T11:46:19.483Z,17.11
2022-10-04T11:49:49.590Z,17.21
2022-10-04T11:53:15.932Z,17.43
2022-10-04T11:56:43.856Z,17.67
2022-10-04T11:59:56.834Z,17.85
2022-10-04T12:03:28.327Z,18.07
2022-10-04T12:06:49.692Z,18.28
2022-10-04T12:10:05.586Z,18.32
2022-10-04T12:13:48.743Z,18.39
2022-10-04T12:17:29.523Z,18.41
2022-10-04T12:21:19.146Z,18.54
2022-10-04T12:24:37.173Z,18.69
2022-10-04T12:28:00.221Z,18.66
2022-10-04T12:31:23.653Z,18.54
2022-10-04T12:34:40.033Z,18.71
2022-10-04T12:38:08.789Z,18.93
2022-10-04T12:41:26.643Z,19.19
2022-10-04T12:44:43.839Z,19.30
2022-10-04T12:48:00.560Z,19.51
2022-10-04T12:51:22.167Z,19.66
2022-10-04T12:54:39.005Z,19.73
2022-10-04T12:57:51.627Z,19.78
2022-10-04T13:01:05.808Z,19.91
2022-10-04T13:04:25.306Z,19.99
2022-10-04T13:07:46.369Z,19.99
2022-10-04T13:11:07.554Z,19.96
2022-10-04T13:14:42.170Z,19.84
2022-10-04T13:17:56.162Z,19.78
2022-10-04T13:21:04.871Z,19.64
2022-10-04T13:24:22.516Z,19.48
2022-10-04T13:27:36.173Z,19.42
2022-10-04T13:30:49.839Z,19.38
2022-10-04T13:34:06.084Z,19.29
2022-10-04T13:37:36.327Z,19.31
2022-10-04T13:40:56.836Z,19.24
2022-10-04T13:44:29.126Z,19.32
2022-10-04T13:47:58.518Z,19.31
2022-10-04T13:51:32.068Z,19.35
2022-10-04T13:54:59.940Z,19.30
2022-10-04T13:58:21.997Z,19.45
2022-10-04T14:02:03.350Z,19.94
2022-10-04T14:05:44.102Z,19.86
2022-10-04T14:13:37.163Z,20.75
2022-10-04T14:17:12.724Z,21.57
2022-10-04T14:20:51.025Z,22.68
2022-10-04T14:24:28.089Z,23.43
2022-10-04T14:28:15.962Z,23.91
2022-10-04T14:31:47.109Z,23.88
2022-10-04T14:35:03.663Z,23.79
2022-10-04T14:38:38.655Z,23.43
2022-10-04T14:42:14.917Z,23.06
2022-10-04T14:45:26.793Z,22.60
2022-10-04T14:48:55.764Z,21.94
2022-10-04T14:52:25.324Z,21.14
2022-10-04T14:56:03.092Z,20.37
2022-10-04T14:59:26.383Z,19.80
2022-10-04T15:03:14.008Z,19.42
2022-10-04T15:06:38.509Z,19.12
2022-10-04T15:09:54.112Z,18.86
2022-10-04T15:13:11.001Z,18.73
2022-10-04T15:16:24.433Z,18.60
2022-10-04T15:19:35.231Z,18.57
2022-10-04T15:22:45.504Z,18.47
2022-10-04T15:25:55.090Z,18.42
2022-10-04T15:29:16.454Z,18.35
2022-10-04T15:32:35.598Z,18.21
2022-10-04T15:35:51.677Z,18.11
2022-10-04T15:39:05.412Z,18.08
2022-10-04T15:42:15.864Z,18.04
2022-10-04T15:46:00.714Z,18.06
2022-10-04T15:49:38.367Z,17.99
2022-10-04T15:53:08.879Z,17.90
2022-10-04T15:56:27.755Z,17.79
2022-10-04T15:59:53.943Z,17.71
2022-10-04T16:03:17.497Z,17.67
2022-10-04T16:06:26.133Z,17.60
2022-10-04T16:09:40.245Z,17.54
2022-10-04T16:13:14.967Z,17.41
2022-10-04T16:16:43.214Z,17.33
2022-10-04T16:20:27.130Z,17.25
2022-10-04T16:23:35.060Z,17.24
2022-10-04T16:27:10.287Z,17.13
2022-10-04T16:30:28.365Z,17.15
2022-10-04T16:33:39.771Z,17.01
2022-10-04T16:36:54.006Z,16.87
2022-10-04T16:40:06.240Z,16.72
2022-10-04T16:43:16.507Z,16.53
2022-10-04T16:46:31.851Z,16.34
2022-10-04T16:49:47.747Z,16.16
2022-10-04T16:53:01.543Z,15.94
2022-10-04T16:56:15.735Z,15.77
2022-10-04T16:59:47.387Z,15.65
2022-10-04T17:03:20.226Z,15.48
2022-10-04T17:06:36.312Z,15.32
2022-10-04T17:09:49.494Z,15.18
2022-10-04T17:13:00.344Z,15.07
2022-10-04T17:16:11.971Z,14.94
2022-10-04T17:19:32.966Z,14.84
2022-10-04T17:22:53.063Z,14.73
2022-10-04T17:26:08.289Z,14.65
2022-10-04T17:29:28.958Z,14.54
2022-10-04T17:32:44.951Z,14.43
2022-10-04T17:36:14.532Z,14.33
2022-10-04T17:39:40.765Z,14.21
2022-10-04T17:42:54.245Z,14.13
2022-10-04T17:46:11.714Z,14.06
2022-10-04T17:49:42.339Z,13.97
2022-10-04T17:53:08.223Z,13.89
2022-10-04T17:56:14.312Z,13.82
2022-10-04T17:59:28.581Z,13.74
2022-10-04T18:02:54.999Z,13.70
2022-10-04T18:06:03.993Z,13.67
2022-10-04T18:09:21.540Z,13.67
2022-10-04T18:12:31.417Z,13.67
2022-10-04T18:15:41.321Z,13.66
2022-10-04T18:18:48.015Z,13.62
2022-10-04T18:21:57.413Z,13.56
2022-10-04T18:25:16.030Z,13.51
2022-10-04T18:28:24.158Z,13.42
2022-10-04T18:31:33.730Z,13.36
2022-10-04T18:34:39.471Z,13.34
2022-10-04T18:37:46.175Z,13.28
2022-10-04T18:40:58.551Z,13.24
2022-10-04T18:44:14.972Z,13.19
2022-10-04T18:47:32.124Z,13.11
2022-10-04T18:50:43.883Z,13.07
2022-10-04T18:53:53.053Z,13.02
2022-10-04T18:57:09.833Z,13.01
2022-10-04T19:00:33.245Z,12.95
2022-10-04T19:03:49.364Z,12.90
2022-10-04T19:07:01.254Z,12.87
2022-10-04T19:10:15.788Z,12.86
2022-10-04T19:13:36.010Z,12.78
2022-10-04T19:16:51.161Z,12.66
2022-10-04T19:20:03.881Z,12.62
2022-10-04T19:23:20.990Z,12.57
2022-10-04T19:26:32.500Z,12.52
2022-10-04T19:30:02.252Z,12.46
2022-10-04T19:33:17.536Z,12.40
2022-10-04T19:36:45.848Z,12.40
2022-10-04T19:40:04.422Z,12.35
2022-10-04T19:43:12.539Z,12.40
2022-10-04T19:46:32.902Z,12.39
2022-10-04T19:49:47.587Z,12.40
2022-10-04T19:53:00.265Z,12.36
2022-10-04T19:56:12.597Z,12.35
2022-10-04T19:59:21.322Z,12.33
2022-10-04T20:02:29.744Z,12.27
2022-10-04T20:05:35.003Z,12.25
2022-10-04T20:09:01.601Z,12.27
2022-10-04T20:12:08.501Z,12.29
2022-10-04T20:15:44.534Z,12.28
2022-10-04T20:19:19.264Z,12.24
2022-10-04T20:22:57.769Z,12.22
2022-10-04T20:26:03.830Z,12.20
2022-10-04T20:29:09.658Z,12.16
2022-10-04T20:32:53.399Z,12.13
2022-10-04T20:36:04.164Z,12.07
2022-10-04T20:39:09.201Z,11.99
2022-10-04T20:42:32.538Z,11.98
2022-10-04T20:45:45.838Z,11.98
2022-10-04T20:48:51.299Z,11.93
2022-10-04T20:51:57.822Z,11.90
2022-10-04T20:55:03.767Z,11.94
2022-10-04T20:58:28.755Z,11.91
2022-10-04T21:01:43.572Z,11.88
2022-10-04T21:04:53.311Z,11.87
2022-10-04T21:08:28.061Z,11.79
2022-10-04T21:11:46.697Z,11.75
2022-10-04T21:15:04.437Z,11.75
2022-10-04T21:18:11.428Z,11.72
2022-10-04T21:21:21.348Z,11.68
2022-10-04T21:24:36.818Z,11.63
2022-10-04T21:27:43.742Z,11.62
2022-10-04T21:30:48.799Z,11.60
2022-10-04T21:33:53.850Z,11.51
2022-10-04T21:36:59.194Z,11.50
2022-10-04T21:40:07.375Z,11.42
2022-10-04T21:43:12.520Z,11.37
2022-10-04T21:46:20.461Z,11.30
2022-10-04T21:49:25.773Z,11.25
2022-10-04T21:52:30.701Z,11.18
2022-10-04T21:55:38.175Z,11.18
2022-10-04T21:58:43.099Z,11.11
2022-10-04T22:01:48.117Z,11.10
2022-10-04T22:04:53.305Z,11.07
2022-10-04T22:07:58.631Z,11.08
2022-10-04T22:11:05.518Z,11.09
2022-10-04T22:14:11.258Z,10.96
2022-10-04T22:17:16.458Z,10.93
2022-10-04T22:20:21.475Z,10.89
2022-10-04T22:23:29.029Z,10.86
2022-10-04T22:26:39.428Z,10.82
2022-10-04T22:29:44.860Z,10.76
2022-10-04T22:32:49.950Z,10.77
2022-10-04T22:35:54.804Z,10.68
2022-10-04T22:39:01.442Z,10.67
2022-10-04T22:42:08.427Z,10.63
2022-10-04T22:45:22.808Z,10.56
2022-10-04T22:48:29.392Z,10.57
2022-10-04T22:51:34.861Z,10.55
2022-10-04T22:54:43.528Z,10.53
2022-10-04T22:57:50.170Z,10.51
2022-10-04T23:00:57.961Z,10.48
2022-10-04T23:04:02.778Z,10.41
2022-10-04T23:07:08.329Z,10.44
2022-10-04T23:10:14.503Z,10.45
2022-10-04T23:13:24.818Z,10.42
2022-10-04T23:16:29.955Z,10.43
2022-10-04T23:19:35.218Z,10.40
2022-10-04T23:22:40.614Z,10.35
2022-10-04T23:25:47.436Z,10.40
2022-10-04T23:28:56.059Z,10.38
2022-10-04T23:32:01.707Z,10.44
2022-10-04T23:35:07.239Z,10.44
2022-10-04T23:38:16.561Z,10.49
2022-10-04T23:41:22.289Z,10.55
2022-10-04T23:44:35.515Z,10.57
2022-10-04T23:47:40.651Z,10.54
2022-10-04T23:50:48.237Z,10.47
2022-10-04T23:53:53.241Z,10.47
2022-10-04T23:56:58.513Z,10.44
